createdAt,value
2023-10-19T00:00:00.653Z,0
2023-10-19T00:05:00.570Z,0
2023-10-19T00:10:00.616Z,0
2023-10-19T00:15:00.578Z,0
2023-10-19T00:20:00.573Z,0
2023-10-19T00:25:00.608Z,0
2023-10-19T00:30:00.537Z,0
2023-10-19T00:35:00.548Z,0
2023-10-19T00:40:00.555Z,0
2023-10-19T00:45:00.575Z,0
2023-10-19T00:50:00.601Z,0
2023-10-19T00:55:00.563Z,0
2023-10-19T01:00:00.559Z,0
2023-10-19T01:05:00.589Z,0
2023-10-19T01:10:00.914Z,0
2023-10-19T01:15:00.644Z,0
2023-10-19T01:20:00.543Z,0
2023-10-19T01:25:00.565Z,0
2023-10-19T01:30:00.608Z,0
2023-10-19T01:35:00.569Z,0
2023-10-19T01:40:00.567Z,0
2023-10-19T01:45:00.566Z,0
2023-10-19T01:50:00.604Z,0
2023-10-19T01:55:00.571Z,0
2023-10-19T02:00:00.601Z,0
2023-10-19T02:05:00.574Z,0
2023-10-19T02:10:00.559Z,0
2023-10-19T02:15:00.814Z,0
2023-10-19T02:20:00.607Z,0
2023-10-19T02:25:00.563Z,0
2023-10-19T02:30:00.691Z,0
2023-10-19T02:35:00.615Z,0
2023-10-19T02:40:00.592Z,0
2023-10-19T02:45:00.534Z,0
2023-10-19T02:50:00.633Z,0
2023-10-19T02:55:00.601Z,0
2023-10-19T03:00:00.618Z,0
2023-10-19T03:05:00.964Z,0
2023-10-19T03:10:00.663Z,0
2023-10-19T03:15:00.631Z,0
2023-10-19T03:20:00.676Z,0
2023-10-19T03:25:00.557Z,0
2023-10-19T03:30:00.603Z,0
2023-10-19T03:35:00.588Z,0
2023-10-19T03:40:00.727Z,0
2023-10-19T03:45:00.551Z,0
2023-10-19T03:50:00.644Z,0
2023-10-19T03:55:00.559Z,0
2023-10-19T04:00:00.670Z,0
2023-10-19T04:05:00.586Z,0
2023-10-19T04:10:00.633Z,0
2023-10-19T04:15:00.563Z,0
2023-10-19T04:20:00.652Z,0
2023-10-19T04:25:00.581Z,0
2023-10-19T04:30:00.776Z,0
2023-10-19T04:35:00.601Z,0
2023-10-19T04:40:00.602Z,0
2023-10-19T04:45:00.578Z,0
2023-10-19T04:50:00.699Z,0
2023-10-19T04:55:00.564Z,0
2023-10-19T05:00:00.578Z,0
2023-10-19T05:05:00.631Z,0
2023-10-19T05:10:00.659Z,0
2023-10-19T05:15:00.667Z,0
2023-10-19T05:20:00.667Z,0
2023-10-19T05:25:00.630Z,0
2023-10-19T05:30:00.590Z,0
2023-10-19T05:35:01.446Z,2
2023-10-19T05:40:00.593Z,4
2023-10-19T05:45:00.589Z,6
2023-10-19T05:50:00.991Z,13
2023-10-19T05:55:00.575Z,26
2023-10-19T06:00:00.675Z,47
2023-10-19T06:05:00.624Z,78
2023-10-19T06:10:00.593Z,127
2023-10-19T06:15:00.605Z,195
2023-10-19T06:20:00.649Z,231
2023-10-19T06:25:00.573Z,315
2023-10-19T06:30:00.774Z,317
2023-10-19T06:35:00.653Z,357
2023-10-19T06:40:00.690Z,421
2023-10-19T06:45:00.638Z,403
2023-10-19T06:50:00.633Z,447
2023-10-19T06:55:00.637Z,724
2023-10-19T07:00:00.635Z,865
2023-10-19T07:05:00.674Z,909
2023-10-19T07:10:00.645Z,936
2023-10-19T07:15:00.596Z,1019
2023-10-19T07:20:00.669Z,1241
2023-10-19T07:25:00.701Z,1498
2023-10-19T07:30:00.699Z,1801
2023-10-19T07:35:00.724Z,1759
2023-10-19T07:40:00.657Z,1708
2023-10-19T07:45:00.630Z,1814
2023-10-19T07:50:00.720Z,1781
2023-10-19T07:55:00.680Z,2015
2023-10-19T08:00:01.101Z,2153
2023-10-19T08:05:00.753Z,2465
2023-10-19T08:10:00.776Z,2376
2023-10-19T08:15:00.568Z,2277
2023-10-19T08:20:00.647Z,2431
2023-10-19T08:25:00.689Z,2768
2023-10-19T08:30:00.781Z,2841
2023-10-19T08:35:00.882Z,2871
2023-10-19T08:40:00.702Z,2961
2023-10-19T08:45:00.683Z,2887
2023-10-19T08:50:00.679Z,2919
2023-10-19T08:55:00.688Z,2885
2023-10-19T09:00:00.735Z,3014
2023-10-19T09:05:00.631Z,3292
2023-10-19T09:10:00.591Z,3301
2023-10-19T09:15:00.717Z,3432
2023-10-19T09:20:00.697Z,2667
2023-10-19T09:25:00.628Z,2901
2023-10-19T09:30:00.661Z,3011
2023-10-19T09:35:00.595Z,3455
2023-10-19T09:40:00.601Z,6012
2023-10-19T09:45:00.617Z,7938
2023-10-19T09:50:00.599Z,8100
2023-10-19T09:55:00.564Z,7418
2023-10-19T10:00:00.600Z,6555
2023-10-19T10:05:00.734Z,7690
2023-10-19T10:10:00.675Z,10177
2023-10-19T10:15:00.879Z,7520
2023-10-19T10:20:00.694Z,9759
2023-10-19T10:25:00.734Z,11687
2023-10-19T10:30:00.580Z,11405
2023-10-19T10:35:00.663Z,6933
2023-10-19T10:40:00.705Z,10471
2023-10-19T10:45:00.701Z,7122
2023-10-19T10:50:00.802Z,5303
2023-10-19T10:55:00.689Z,4261
2023-10-19T11:00:00.556Z,6775
2023-10-19T11:05:00.748Z,11046
2023-10-19T11:10:00.584Z,6953
2023-10-19T11:15:00.648Z,5905
2023-10-19T11:20:00.749Z,5727
2023-10-19T11:25:00.880Z,10522
2023-10-19T11:30:00.596Z,6480
2023-10-19T11:35:00.663Z,5733
2023-10-19T11:40:00.571Z,4876
2023-10-19T11:45:00.562Z,5135
2023-10-19T11:50:00.610Z,6479
2023-10-19T11:55:00.582Z,19081
2023-10-19T12:00:00.664Z,10275
2023-10-19T12:05:00.732Z,9736
2023-10-19T12:10:00.584Z,22208
2023-10-19T12:15:00.615Z,26841
2023-10-19T12:20:00.802Z,10713
2023-10-19T12:25:00.603Z,8736
2023-10-19T12:30:00.734Z,11314
2023-10-19T12:35:00.678Z,14012
2023-10-19T12:40:00.691Z,10767
2023-10-19T12:45:00.579Z,9057
2023-10-19T12:50:00.645Z,6974
2023-10-19T12:55:00.643Z,4685
2023-10-19T13:00:00.659Z,4677
2023-10-19T13:05:00.797Z,4026
2023-10-19T13:10:00.793Z,4218
2023-10-19T13:20:00.582Z,5218
2023-10-19T13:25:00.619Z,5825
2023-10-19T13:30:00.733Z,3719
2023-10-19T13:35:00.716Z,2363
2023-10-19T13:40:00.658Z,1665
2023-10-19T13:45:00.583Z,2627
2023-10-19T13:50:00.708Z,3745
2023-10-19T13:55:00.628Z,2510
2023-10-19T14:00:00.588Z,2136
2023-10-19T14:05:00.650Z,2497
2023-10-19T14:10:00.685Z,2769
2023-10-19T14:15:00.918Z,2084
2023-10-19T14:20:00.583Z,1900
2023-10-19T14:25:00.568Z,2360
2023-10-19T14:30:00.733Z,3102
2023-10-19T14:35:00.692Z,2510
2023-10-19T14:40:00.598Z,1949
2023-10-19T14:45:00.555Z,1128
2023-10-19T14:50:00.623Z,772
2023-10-19T14:55:00.578Z,915
2023-10-19T15:00:00.789Z,1163
2023-10-19T15:05:00.598Z,1464
2023-10-19T15:10:00.564Z,1781
2023-10-19T15:15:00.603Z,1590
2023-10-19T15:20:00.589Z,1151
2023-10-19T15:25:02.052Z,753
2023-10-19T15:30:00.572Z,720
2023-10-19T15:35:00.620Z,526
2023-10-19T15:40:00.659Z,423
2023-10-19T15:45:00.572Z,525
2023-10-19T15:50:00.618Z,558
2023-10-19T15:55:00.936Z,504
2023-10-19T16:00:01.172Z,567
2023-10-19T16:05:00.649Z,677
2023-10-19T16:10:00.609Z,901
2023-10-19T16:15:00.772Z,992
2023-10-19T16:20:00.632Z,803
2023-10-19T16:25:00.561Z,559
2023-10-19T16:30:00.601Z,355
2023-10-19T16:35:00.555Z,264
2023-10-19T16:40:00.523Z,104
2023-10-19T16:45:00.681Z,58
2023-10-19T16:50:00.929Z,34
2023-10-19T16:55:00.665Z,18
2023-10-19T17:00:00.546Z,9
2023-10-19T17:05:00.794Z,5
2023-10-19T17:10:00.530Z,4
2023-10-19T17:15:01.773Z,2
2023-10-19T17:20:00.656Z,0
2023-10-19T17:25:00.568Z,0
2023-10-19T17:30:00.611Z,0
2023-10-19T17:35:00.715Z,0
2023-10-19T17:40:00.569Z,0
2023-10-19T17:45:00.605Z,0
2023-10-19T17:50:00.645Z,0
2023-10-19T17:55:00.584Z,0
2023-10-19T18:00:00.630Z,0
2023-10-19T18:05:00.613Z,0
2023-10-19T18:10:00.554Z,0
2023-10-19T18:15:00.596Z,0
2023-10-19T18:20:00.609Z,0
2023-10-19T18:25:01.267Z,0
2023-10-19T18:30:00.583Z,0
2023-10-19T18:35:00.605Z,0
2023-10-19T18:40:00.564Z,0
2023-10-19T18:45:00.574Z,0
2023-10-19T18:50:09.758Z,0
2023-10-19T18:55:00.595Z,0
2023-10-19T19:00:00.559Z,0
2023-10-19T19:05:00.562Z,0
2023-10-19T19:10:00.531Z,0
2023-10-19T19:15:00.546Z,0
2023-10-19T19:20:00.591Z,0
2023-10-19T19:25:00.576Z,0
2023-10-19T19:30:00.564Z,0
2023-10-19T19:35:00.577Z,0
2023-10-19T19:40:00.569Z,0
2023-10-19T19:45:00.594Z,0
2023-10-19T19:50:00.543Z,0
2023-10-19T19:55:00.573Z,0
2023-10-19T20:00:00.778Z,0
2023-10-19T20:05:00.629Z,0
2023-10-19T20:10:00.631Z,0
2023-10-19T20:15:00.622Z,0
2023-10-19T20:20:00.636Z,0
2023-10-19T20:25:00.639Z,0
2023-10-19T20:30:00.696Z,0
2023-10-19T20:35:00.575Z,0
2023-10-19T20:40:00.583Z,0
2023-10-19T20:45:00.561Z,0
2023-10-19T20:50:00.630Z,0
2023-10-19T20:55:00.556Z,0
2023-10-19T21:00:00.615Z,0
2023-10-19T21:05:00.629Z,0
2023-10-19T21:10:00.570Z,0
2023-10-19T21:15:00.561Z,0
2023-10-19T21:20:00.742Z,0
2023-10-19T21:25:00.595Z,0
2023-10-19T21:30:00.592Z,0
2023-10-19T21:35:00.591Z,0
2023-10-19T21:40:00.580Z,0
2023-10-19T21:45:00.579Z,0
2023-10-19T21:50:00.631Z,0
2023-10-19T21:55:00.572Z,0
2023-10-19T22:00:00.653Z,0
2023-10-19T22:05:10.143Z,0
2023-10-19T22:10:00.544Z,0
2023-10-19T22:15:00.585Z,0
2023-10-19T22:20:00.604Z,0
2023-10-19T22:25:00.593Z,0
2023-10-19T22:30:00.579Z,0
2023-10-19T22:35:00.730Z,0
2023-10-19T22:40:00.571Z,0
2023-10-19T22:45:00.569Z,0
2023-10-19T22:50:00.605Z,0
2023-10-19T22:55:00.746Z,0
2023-10-19T23:00:00.572Z,0
2023-10-19T23:05:00.759Z,0
2023-10-19T23:10:00.610Z,0
2023-10-19T23:15:00.601Z,0
2023-10-19T23:20:00.636Z,0
2023-10-19T23:25:00.778Z,0
2023-10-19T23:30:00.540Z,0
2023-10-19T23:35:00.692Z,0
2023-10-19T23:40:00.643Z,0
2023-10-19T23:45:00.777Z,0
2023-10-19T23:50:00.620Z,0
2023-10-19T23:55:00.570Z,0
